aviador You're here:

KMQY Decoded Metar

SMYRNA in TN, USA
Report Time2018-01-18 12:56:00
UTC Time2018-01-18 14:00:09
Flight Rules vfr VFR
Wind130° at 04 kt
W.Decomp.*RWY 14: 4.0 kt HW 0.6 kt LCW
RWY 19: 2.1 kt HW 3.4 kt LCW
W.Rank130° ranks 29
Current wind is below 130° avg. (4.5)
Visibility9999 m
Phenomena:N/A
Clouds:N/A
Expected CloudBase > 800 ft AGL from Temp-Dew spread
CeilingNone
Temp-16°C (ISA -30)
Dew Point-18°C (85% RH)
AAT-20.9°C
QNH1035 hPa
Density Alt-3,976 ft
Elevation545 ft
Report Wrong Elevation
Raw Report
METAR KMQY 181256Z 13004KT 10SM CLR M16/M18 A3057 RMK AO2 SLP463 T11611183=

Extra information for KMQY:More info

Metar Taf Metar & Taf Last 4 Metars F.Rules Stats Wind Profile Meteogram Temp Stats Airport Information Weather charts Add Link Nearby VenuesMetar ALERT Operation Metar Decoded Social comments

AIRNAV info for KMQY